Terminal Aerodrome Forecast
Issued by NWS Louisville, KY

Home | Current Version | Previous Version | Graphics & Text | Print | Product List | Glossary On
Versions: 1 2 3 4 5 6 7 8 9 10 11 12
381
FTUS43 KLMK 262320
TAFBWG
TAF
KBWG 262320Z 2700/2724 VRB03KT P6SM FEW070 SCT250
     FM270800 VRB03KT P6SM VCSH SCT060 BKN100
     FM271200 05005KT P6SM SCT060 BKN100=

USA.gov is the U.S. government's official web portal to all federal, state and local government web resources and services.